createdAt,value
2024-02-20T00:05:23.837Z,6.00
2024-02-20T00:10:30.312Z,5.30
2024-02-20T00:15:33.006Z,5.63
2024-02-20T00:20:39.183Z,5.60
2024-02-20T00:25:45.191Z,5.20
2024-02-20T00:30:48.138Z,8.23
2024-02-20T00:35:52.150Z,6.30
2024-02-20T00:40:56.241Z,5.57
2024-02-20T00:46:01.348Z,5.13
2024-02-20T00:51:05.808Z,5.03
2024-02-20T00:57:07.918Z,6.63
2024-02-20T01:02:12.677Z,5.63
2024-02-20T01:07:17.398Z,5.10
2024-02-20T01:12:20.133Z,4.60
2024-02-20T01:17:23.546Z,5.17
2024-02-20T01:22:27.813Z,5.70
2024-02-20T01:27:30.575Z,5.63
2024-02-20T01:32:33.461Z,6.07
2024-02-20T01:37:37.642Z,5.53
2024-02-20T01:42:40.597Z,4.53
2024-02-20T01:47:43.800Z,5.97
2024-02-20T01:52:48.928Z,5.13
2024-02-20T01:57:51.621Z,5.47
2024-02-20T02:02:54.468Z,5.53
2024-02-20T02:08:00.251Z,4.80
2024-02-20T02:13:03.614Z,5.13
2024-02-20T02:18:07.778Z,6.60
2024-02-20T02:23:12.515Z,4.90
2024-02-20T02:28:16.868Z,6.43
2024-02-20T02:33:19.773Z,5.10
2024-02-20T02:38:24.994Z,6.80
2024-02-20T02:43:29.164Z,5.37
2024-02-20T02:48:31.956Z,5.47
2024-02-20T02:53:34.636Z,5.10
2024-02-20T02:58:39.168Z,5.30
2024-02-20T03:03:41.929Z,6.27
2024-02-20T03:08:46.348Z,5.13
2024-02-20T03:13:50.840Z,5.37
2024-02-20T03:18:54.618Z,5.10
2024-02-20T03:23:57.346Z,5.83
2024-02-20T03:29:01.532Z,7.00
2024-02-20T03:34:04.876Z,6.57
2024-02-20T03:39:08.302Z,7.20
2024-02-20T03:44:12.324Z,6.47
2024-02-20T03:49:15.812Z,5.70
2024-02-20T03:54:18.697Z,7.37
2024-02-20T03:59:23.124Z,5.80
2024-02-20T04:04:25.884Z,6.30
2024-02-20T04:09:28.672Z,6.67
2024-02-20T04:14:32.783Z,6.60
2024-02-20T04:19:36.832Z,6.60
2024-02-20T04:24:39.688Z,5.97
2024-02-20T04:29:44.517Z,5.60
2024-02-20T04:34:47.697Z,7.20
2024-02-20T04:39:50.562Z,6.93
2024-02-20T04:44:54.988Z,7.17
2024-02-20T04:49:57.895Z,7.70
2024-02-20T04:55:01.014Z,14.20
2024-02-20T05:00:11.535Z,7.07
2024-02-20T05:05:15.887Z,7.60
2024-02-20T05:10:19.003Z,6.60
2024-02-20T05:15:23.488Z,6.47
2024-02-20T05:20:26.456Z,4.60
2024-02-20T05:25:29.435Z,6.70
2024-02-20T05:30:33.747Z,7.00
2024-02-20T05:35:37.078Z,5.60
2024-02-20T05:40:40.090Z,6.27
2024-02-20T05:45:45.523Z,6.77
2024-02-20T05:50:48.292Z,7.57
2024-02-20T05:55:51.514Z,6.87
2024-02-20T06:00:55.578Z,7.03
2024-02-20T06:05:58.311Z,8.10
2024-02-20T06:11:01.142Z,7.97
2024-02-20T06:16:05.961Z,7.97
2024-02-20T06:21:10.700Z,7.83
2024-02-20T06:26:15.837Z,8.63
2024-02-20T06:31:20.263Z,7.57
2024-02-20T06:36:22.930Z,7.40
2024-02-20T06:41:25.624Z,42.93
2024-02-20T06:46:30.100Z,8.83
2024-02-20T06:51:35.388Z,7.43
2024-02-20T06:56:38.765Z,8.23
2024-02-20T07:01:42.841Z,7.97
2024-02-20T07:06:45.720Z,14.53
2024-02-20T07:11:48.576Z,8.70
2024-02-20T07:16:52.733Z,7.40
2024-02-20T07:21:55.452Z,44.03
2024-02-20T07:26:58.462Z,13.30
2024-02-20T07:32:03.599Z,9.23
2024-02-20T07:37:06.567Z,8.47
2024-02-20T07:42:09.516Z,8.37
2024-02-20T07:47:13.637Z,16.07
2024-02-20T07:52:16.414Z,10.80
2024-02-20T07:57:19.124Z,8.07
2024-02-20T08:02:23.249Z,8.83
2024-02-20T08:07:26.669Z,9.50
2024-02-20T08:12:29.335Z,10.20
2024-02-20T08:17:33.756Z,12.73
2024-02-20T08:22:36.401Z,11.60
2024-02-20T08:27:39.150Z,13.17
2024-02-20T08:32:45.400Z,13.43
2024-02-20T08:37:48.353Z,15.20
2024-02-20T08:42:51.014Z,15.20
2024-02-20T08:47:55.940Z,16.00
2024-02-20T08:53:01.172Z,14.23
2024-02-20T08:58:05.132Z,14.47
2024-02-20T09:03:10.890Z,15.00
2024-02-20T09:08:14.026Z,15.90
2024-02-20T09:13:18.331Z,16.13
2024-02-20T09:18:23.294Z,14.83
2024-02-20T09:23:26.077Z,17.20
2024-02-20T09:28:29.177Z,16.03
2024-02-20T09:33:33.394Z,17.93
2024-02-20T09:38:36.325Z,16.23
2024-02-20T09:43:40.750Z,17.63
2024-02-20T09:48:45.533Z,17.20
2024-02-20T09:53:50.077Z,19.17
2024-02-20T09:58:55.387Z,18.80
2024-02-20T10:04:05.126Z,18.67
2024-02-20T10:09:09.812Z,18.30
2024-02-20T10:14:12.492Z,19.20
2024-02-20T10:19:20.884Z,18.53
2024-02-20T10:24:31.772Z,18.80
2024-02-20T10:29:37.639Z,19.63
2024-02-20T10:34:41.698Z,20.13
2024-02-20T10:39:44.693Z,19.93
2024-02-20T10:44:49.881Z,19.10
2024-02-20T10:49:56.386Z,21.30
2024-02-20T10:55:13.485Z,20.50
2024-02-20T11:00:22.659Z,21.23
2024-02-20T11:05:27.944Z,21.20
2024-02-20T11:10:30.696Z,17.20
2024-02-20T11:15:33.705Z,17.23
2024-02-20T11:20:38.953Z,15.00
2024-02-20T11:25:42.563Z,17.63
2024-02-20T11:30:46.877Z,17.27
2024-02-20T11:35:53.562Z,18.43
2024-02-20T11:40:57.775Z,16.47
2024-02-20T11:46:00.998Z,15.53
2024-02-20T11:51:06.365Z,14.80
2024-02-20T11:56:09.463Z,16.53
2024-02-20T12:01:12.329Z,14.77
2024-02-20T12:06:16.486Z,16.27
2024-02-20T12:11:22.074Z,15.77
2024-02-20T12:16:28.634Z,14.80
2024-02-20T12:21:33.967Z,15.10
2024-02-20T12:26:36.903Z,12.97
2024-02-20T12:31:40.155Z,14.10
2024-02-20T12:36:46.124Z,10.70
2024-02-20T12:41:48.966Z,11.50
2024-02-20T12:46:52.066Z,9.90
2024-02-20T12:51:56.241Z,9.17
2024-02-20T12:57:00.242Z,8.10
2024-02-20T13:02:06.274Z,6.90
2024-02-20T13:07:10.805Z,7.43
2024-02-20T13:12:16.713Z,7.50
2024-02-20T13:17:19.422Z,8.63
2024-02-20T13:22:23.945Z,6.80
2024-02-20T13:27:26.754Z,7.67
2024-02-20T13:32:29.431Z,7.40
2024-02-20T13:37:33.485Z,6.37
2024-02-20T13:42:36.514Z,6.97
2024-02-20T13:47:39.441Z,7.03
2024-02-20T13:52:43.685Z,5.87
2024-02-20T13:57:47.453Z,5.17
2024-02-20T14:02:50.100Z,6.43
2024-02-20T14:07:54.409Z,6.30
2024-02-20T14:12:58.200Z,5.67
2024-02-20T14:18:01.123Z,4.97
2024-02-20T14:23:06.215Z,6.70
2024-02-20T14:28:08.981Z,4.80
2024-02-20T14:33:11.905Z,5.03
2024-02-20T14:38:16.576Z,5.97
2024-02-20T14:43:25.878Z,6.00
2024-02-20T14:48:32.573Z,4.77
2024-02-20T14:53:36.920Z,6.03
2024-02-20T14:58:39.632Z,5.90
2024-02-20T15:03:44.150Z,4.00
2024-02-20T15:08:48.645Z,5.00
2024-02-20T15:13:55.556Z,5.50
2024-02-20T15:18:59.378Z,4.87
2024-02-20T15:24:04.584Z,5.30
2024-02-20T15:29:07.801Z,4.87
2024-02-20T15:34:11.136Z,5.20
2024-02-20T15:39:15.404Z,4.57
2024-02-20T15:44:18.100Z,3.80
2024-02-20T15:49:25.441Z,4.60
2024-02-20T15:54:33.178Z,5.00
2024-02-20T15:59:36.802Z,5.80
2024-02-20T16:04:39.853Z,4.33
2024-02-20T16:09:44.091Z,4.53
2024-02-20T16:14:52.043Z,5.20
2024-02-20T16:19:55.593Z,3.87
2024-02-20T16:24:59.928Z,5.23
2024-02-20T16:30:03.712Z,5.17
2024-02-20T16:35:07.737Z,4.50
2024-02-20T16:40:13.976Z,5.10
2024-02-20T16:45:17.491Z,4.90
2024-02-20T16:50:20.308Z,3.70
2024-02-20T16:55:25.304Z,4.70
2024-02-20T17:00:29.383Z,5.47
2024-02-20T17:05:32.816Z,4.30
2024-02-20T17:10:37.901Z,4.70
2024-02-20T17:15:40.703Z,6.03
2024-02-20T17:20:44.390Z,3.80
2024-02-20T17:25:49.021Z,4.20
2024-02-20T17:30:51.825Z,4.60
2024-02-20T17:35:57.518Z,4.37
2024-02-20T17:41:29.536Z,5.43
2024-02-20T17:46:33.139Z,5.13
2024-02-20T17:51:37.290Z,5.37
2024-02-20T17:56:41.849Z,4.93
2024-02-20T18:01:45.267Z,5.00
2024-02-20T18:07:05.049Z,4.70
2024-02-20T18:12:13.103Z,5.80
2024-02-20T18:17:15.794Z,5.70
2024-02-20T18:22:18.580Z,5.80
2024-02-20T18:27:23.267Z,6.37
2024-02-20T18:32:26.844Z,5.97
2024-02-20T18:37:29.622Z,6.60
2024-02-20T18:42:33.820Z,5.43
2024-02-20T18:47:37.775Z,5.17
2024-02-20T18:52:40.815Z,7.00
2024-02-20T18:57:44.956Z,7.50
2024-02-20T19:02:47.907Z,6.47
2024-02-20T19:07:51.907Z,12.23
2024-02-20T19:12:57.354Z,6.70
2024-02-20T19:18:02.681Z,6.20
2024-02-20T19:23:05.700Z,6.40
2024-02-20T19:28:09.897Z,7.20
2024-02-20T19:33:13.468Z,10.20
2024-02-20T19:38:19.048Z,6.47
2024-02-20T19:43:23.192Z,7.20
2024-02-20T19:48:26.730Z,7.53
2024-02-20T19:53:33.463Z,11.30
2024-02-20T19:58:38.179Z,7.47
2024-02-20T20:03:43.018Z,8.10
2024-02-20T20:08:46.392Z,7.10
2024-02-20T20:13:50.616Z,8.93
2024-02-20T20:18:53.456Z,7.00
2024-02-20T20:24:07.161Z,7.10
2024-02-20T20:29:18.433Z,8.07
2024-02-20T20:34:21.287Z,7.83
2024-02-20T20:39:26.719Z,6.90
2024-02-20T20:44:31.005Z,8.17
2024-02-20T20:49:34.237Z,8.80
2024-02-20T20:54:37.864Z,8.93
2024-02-20T20:59:41.893Z,8.03
2024-02-20T21:04:49.012Z,8.47
2024-02-20T21:09:51.734Z,7.23
2024-02-20T21:14:57.003Z,7.43
2024-02-20T21:19:59.701Z,7.90
2024-02-20T21:25:05.382Z,7.17
2024-02-20T21:30:11.160Z,7.17
2024-02-20T21:35:14.125Z,9.47
2024-02-20T21:40:17.458Z,9.43
2024-02-20T21:45:22.208Z,8.17
2024-02-20T21:50:25.194Z,8.37
2024-02-20T21:55:30.189Z,9.83
2024-02-20T22:00:39.296Z,8.47
2024-02-20T22:05:45.432Z,10.20
2024-02-20T22:10:48.494Z,10.30
2024-02-20T22:15:56.177Z,10.97
2024-02-20T22:20:59.987Z,10.47
2024-02-20T22:26:05.769Z,11.40
2024-02-20T22:31:10.007Z,11.10
2024-02-20T22:36:16.136Z,11.80
2024-02-20T22:41:19.214Z,13.30
2024-02-20T22:46:23.732Z,13.87
2024-02-20T22:51:26.897Z,12.80
2024-02-20T22:56:30.889Z,12.93
2024-02-20T23:01:35.688Z,14.90
2024-02-20T23:06:41.803Z,15.23
2024-02-20T23:11:45.484Z,15.57
2024-02-20T23:16:50.377Z,14.47
2024-02-20T23:21:53.699Z,15.20
2024-02-20T23:26:56.578Z,13.67
2024-02-20T23:32:00.598Z,14.73
2024-02-20T23:37:03.325Z,13.57
2024-02-20T23:42:08.021Z,15.83
2024-02-20T23:47:12.320Z,14.30
2024-02-20T23:52:14.933Z,16.20
2024-02-20T23:57:17.660Z,14.33
